sensor_id;sensor_type;location;lat;lon;timestamp;P1;durP1;ratioP1;P2;durP2;ratioP2
19883;SDS011;10104;50.732;10.174;2022-09-13T00:02:17;9.73;;;6.73;;
19883;SDS011;10104;50.732;10.174;2022-09-13T00:04:39;8.43;;;5.87;;
19883;SDS011;10104;50.732;10.174;2022-09-13T00:07:01;6.83;;;6.20;;
19883;SDS011;10104;50.732;10.174;2022-09-13T00:09:22;9.10;;;6.17;;
19883;SDS011;10104;50.732;10.174;2022-09-13T00:11:44;7.10;;;6.10;;
19883;SDS011;10104;50.732;10.174;2022-09-13T00:14:05;7.73;;;6.63;;
19883;SDS011;10104;50.732;10.174;2022-09-13T00:16:27;6.93;;;6.23;;
19883;SDS011;10104;50.732;10.174;2022-09-13T00:18:50;6.47;;;5.83;;
19883;SDS011;10104;50.732;10.174;2022-09-13T00:21:13;7.17;;;6.13;;
19883;SDS011;10104;50.732;10.174;2022-09-13T00:23:36;8.47;;;6.47;;
19883;SDS011;10104;50.732;10.174;2022-09-13T00:26:05;9.40;;;6.77;;
19883;SDS011;10104;50.732;10.174;2022-09-13T00:28:31;7.03;;;6.37;;
19883;SDS011;10104;50.732;10.174;2022-09-13T00:30:53;8.23;;;6.30;;
19883;SDS011;10104;50.732;10.174;2022-09-13T00:33:14;7.90;;;6.53;;
19883;SDS011;10104;50.732;10.174;2022-09-13T00:35:36;6.90;;;6.20;;
19883;SDS011;10104;50.732;10.174;2022-09-13T00:38:00;8.57;;;6.53;;
19883;SDS011;10104;50.732;10.174;2022-09-13T00:40:22;8.17;;;6.80;;
19883;SDS011;10104;50.732;10.174;2022-09-13T00:42:43;8.00;;;7.20;;
19883;SDS011;10104;50.732;10.174;2022-09-13T00:47:37;9.37;;;6.90;;
19883;SDS011;10104;50.732;10.174;2022-09-13T00:50:10;7.67;;;6.47;;
19883;SDS011;10104;50.732;10.174;2022-09-13T00:55:19;8.40;;;6.60;;
19883;SDS011;10104;50.732;10.174;2022-09-13T00:57:46;7.63;;;6.03;;
19883;SDS011;10104;50.732;10.174;2022-09-13T01:00:08;10.70;;;7.37;;
19883;SDS011;10104;50.732;10.174;2022-09-13T01:02:33;7.63;;;6.83;;
19883;SDS011;10104;50.732;10.174;2022-09-13T01:04:55;7.03;;;5.90;;
19883;SDS011;10104;50.732;10.174;2022-09-13T01:07:17;7.20;;;6.50;;
19883;SDS011;10104;50.732;10.174;2022-09-13T01:09:40;8.10;;;6.40;;
19883;SDS011;10104;50.732;10.174;2022-09-13T01:12:13;11.20;;;7.33;;
19883;SDS011;10104;50.732;10.174;2022-09-13T01:14:43;8.97;;;7.67;;
19883;SDS011;10104;50.732;10.174;2022-09-13T01:17:06;9.73;;;7.77;;
19883;SDS011;10104;50.732;10.174;2022-09-13T01:19:28;9.10;;;7.43;;
19883;SDS011;10104;50.732;10.174;2022-09-13T01:38:29;8.80;;;7.40;;
19883;SDS011;10104;50.732;10.174;2022-09-13T01:49:58;8.30;;;6.20;;
19883;SDS011;10104;50.732;10.174;2022-09-13T01:52:34;8.80;;;6.60;;
19883;SDS011;10104;50.732;10.174;2022-09-13T01:55:19;7.40;;;6.67;;
19883;SDS011;10104;50.732;10.174;2022-09-13T01:57:51;8.23;;;7.13;;
19883;SDS011;10104;50.732;10.174;2022-09-13T02:00:20;8.20;;;7.20;;
19883;SDS011;10104;50.732;10.174;2022-09-13T02:03:00;11.67;;;7.60;;
19883;SDS011;10104;50.732;10.174;2022-09-13T02:08:03;11.53;;;8.67;;
19883;SDS011;10104;50.732;10.174;2022-09-13T02:10:40;8.93;;;7.50;;
19883;SDS011;10104;50.732;10.174;2022-09-13T02:13:08;8.73;;;7.40;;
19883;SDS011;10104;50.732;10.174;2022-09-13T02:15:35;8.93;;;6.63;;
19883;SDS011;10104;50.732;10.174;2022-09-13T02:18:07;8.53;;;6.67;;
19883;SDS011;10104;50.732;10.174;2022-09-13T02:20:33;8.73;;;7.47;;
19883;SDS011;10104;50.732;10.174;2022-09-13T02:23:00;9.97;;;8.40;;
19883;SDS011;10104;50.732;10.174;2022-09-13T02:25:24;9.07;;;8.17;;
19883;SDS011;10104;50.732;10.174;2022-09-13T02:27:49;11.10;;;8.60;;
19883;SDS011;10104;50.732;10.174;2022-09-13T02:30:18;9.93;;;8.07;;
19883;SDS011;10104;50.732;10.174;2022-09-13T02:32:44;8.27;;;7.30;;
19883;SDS011;10104;50.732;10.174;2022-09-13T02:37:38;9.63;;;6.83;;
19883;SDS011;10104;50.732;10.174;2022-09-13T02:40:09;8.60;;;6.83;;
19883;SDS011;10104;50.732;10.174;2022-09-13T02:42:44;10.70;;;7.17;;
19883;SDS011;10104;50.732;10.174;2022-09-13T02:45:13;8.83;;;6.83;;
19883;SDS011;10104;50.732;10.174;2022-09-13T02:47:48;8.63;;;7.73;;
19883;SDS011;10104;50.732;10.174;2022-09-13T02:58:20;8.27;;;6.80;;
19883;SDS011;10104;50.732;10.174;2022-09-13T03:01:03;10.23;;;7.63;;
19883;SDS011;10104;50.732;10.174;2022-09-13T03:03:24;8.17;;;7.33;;
19883;SDS011;10104;50.732;10.174;2022-09-13T03:05:46;8.73;;;7.20;;
19883;SDS011;10104;50.732;10.174;2022-09-13T03:08:08;8.47;;;7.07;;
19883;SDS011;10104;50.732;10.174;2022-09-13T03:10:40;9.43;;;7.50;;
19883;SDS011;10104;50.732;10.174;2022-09-13T03:13:27;7.20;;;6.50;;
19883;SDS011;10104;50.732;10.174;2022-09-13T03:16:19;7.97;;;7.10;;
19883;SDS011;10104;50.732;10.174;2022-09-13T03:26:48;10.73;;;8.40;;
19883;SDS011;10104;50.732;10.174;2022-09-13T03:37:24;8.70;;;6.97;;
19883;SDS011;10104;50.732;10.174;2022-09-13T03:39:56;8.57;;;6.30;;
19883;SDS011;10104;50.732;10.174;2022-09-13T03:42:25;7.73;;;5.87;;
19883;SDS011;10104;50.732;10.174;2022-09-13T03:44:54;7.40;;;6.53;;
19883;SDS011;10104;50.732;10.174;2022-09-13T03:47:18;7.40;;;6.60;;
19883;SDS011;10104;50.732;10.174;2022-09-13T03:49:41;9.57;;;7.30;;
19883;SDS011;10104;50.732;10.174;2022-09-13T03:52:03;8.33;;;7.17;;
19883;SDS011;10104;50.732;10.174;2022-09-13T03:54:27;9.03;;;7.67;;
19883;SDS011;10104;50.732;10.174;2022-09-13T03:57:37;8.03;;;7.23;;
19883;SDS011;10104;50.732;10.174;2022-09-13T03:59:45;7.93;;;7.13;;
19883;SDS011;10104;50.732;10.174;2022-09-13T04:02:14;9.93;;;7.13;;
19883;SDS011;10104;50.732;10.174;2022-09-13T04:04:40;10.87;;;6.73;;
19883;SDS011;10104;50.732;10.174;2022-09-13T04:07:03;8.80;;;6.63;;
19883;SDS011;10104;50.732;10.174;2022-09-13T04:09:24;8.03;;;7.23;;
19883;SDS011;10104;50.732;10.174;2022-09-13T04:11:46;8.47;;;7.10;;
19883;SDS011;10104;50.732;10.174;2022-09-13T04:14:07;8.10;;;6.50;;
19883;SDS011;10104;50.732;10.174;2022-09-13T04:16:28;8.23;;;6.80;;
19883;SDS011;10104;50.732;10.174;2022-09-13T04:18:50;7.67;;;6.80;;
19883;SDS011;10104;50.732;10.174;2022-09-13T04:21:11;9.63;;;7.03;;
19883;SDS011;10104;50.732;10.174;2022-09-13T04:23:33;8.33;;;7.20;;
19883;SDS011;10104;50.732;10.174;2022-09-13T04:25:54;7.93;;;7.13;;
19883;SDS011;10104;50.732;10.174;2022-09-13T04:28:21;7.07;;;6.37;;
19883;SDS011;10104;50.732;10.174;2022-09-13T04:30:43;8.60;;;7.20;;
19883;SDS011;10104;50.732;10.174;2022-09-13T04:33:06;11.30;;;6.63;;
19883;SDS011;10104;50.732;10.174;2022-09-13T04:35:27;9.03;;;7.37;;
19883;SDS011;10104;50.732;10.174;2022-09-13T04:37:49;8.53;;;6.87;;
19883;SDS011;10104;50.732;10.174;2022-09-13T04:40:10;9.13;;;7.03;;
19883;SDS011;10104;50.732;10.174;2022-09-13T04:42:32;7.77;;;6.53;;
19883;SDS011;10104;50.732;10.174;2022-09-13T04:44:54;7.80;;;7.03;;
19883;SDS011;10104;50.732;10.174;2022-09-13T04:47:15;9.20;;;7.30;;
19883;SDS011;10104;50.732;10.174;2022-09-13T04:49:37;9.83;;;7.23;;
19883;SDS011;10104;50.732;10.174;2022-09-13T04:51:59;8.10;;;6.90;;
19883;SDS011;10104;50.732;10.174;2022-09-13T04:54:20;8.93;;;7.47;;
19883;SDS011;10104;50.732;10.174;2022-09-13T04:56:42;8.57;;;7.33;;
19883;SDS011;10104;50.732;10.174;2022-09-13T04:59:04;8.67;;;6.57;;
19883;SDS011;10104;50.732;10.174;2022-09-13T05:01:27;9.03;;;8.07;;
19883;SDS011;10104;50.732;10.174;2022-09-13T05:03:50;10.50;;;8.27;;
19883;SDS011;10104;50.732;10.174;2022-09-13T05:06:14;10.07;;;9.07;;
19883;SDS011;10104;50.732;10.174;2022-09-13T05:08:39;13.33;;;9.37;;
19883;SDS011;10104;50.732;10.174;2022-09-13T05:11:01;10.97;;;8.93;;
19883;SDS011;10104;50.732;10.174;2022-09-13T05:13:26;10.10;;;8.80;;
19883;SDS011;10104;50.732;10.174;2022-09-13T05:15:48;8.73;;;7.73;;
19883;SDS011;10104;50.732;10.174;2022-09-13T05:18:09;10.57;;;7.87;;
19883;SDS011;10104;50.732;10.174;2022-09-13T05:20:31;8.63;;;7.37;;
19883;SDS011;10104;50.732;10.174;2022-09-13T05:22:54;9.07;;;6.90;;
19883;SDS011;10104;50.732;10.174;2022-09-13T05:25:15;8.97;;;6.80;;
19883;SDS011;10104;50.732;10.174;2022-09-13T05:27:37;9.10;;;6.70;;
19883;SDS011;10104;50.732;10.174;2022-09-13T05:29:58;7.17;;;6.23;;
19883;SDS011;10104;50.732;10.174;2022-09-13T05:32:20;9.10;;;7.07;;
19883;SDS011;10104;50.732;10.174;2022-09-13T05:34:41;7.87;;;7.07;;
19883;SDS011;10104;50.732;10.174;2022-09-13T05:37:03;8.43;;;7.60;;
19883;SDS011;10104;50.732;10.174;2022-09-13T05:39:24;9.73;;;7.57;;
19883;SDS011;10104;50.732;10.174;2022-09-13T05:41:59;9.83;;;6.90;;
19883;SDS011;10104;50.732;10.174;2022-09-13T05:44:21;8.80;;;6.77;;
19883;SDS011;10104;50.732;10.174;2022-09-13T05:46:45;9.10;;;7.23;;
19883;SDS011;10104;50.732;10.174;2022-09-13T05:49:07;9.87;;;7.10;;
19883;SDS011;10104;50.732;10.174;2022-09-13T05:51:29;7.73;;;6.93;;
19883;SDS011;10104;50.732;10.174;2022-09-13T05:53:51;7.70;;;6.67;;
19883;SDS011;10104;50.732;10.174;2022-09-13T05:56:15;9.90;;;7.30;;
19883;SDS011;10104;50.732;10.174;2022-09-13T05:58:39;9.00;;;7.33;;
19883;SDS011;10104;50.732;10.174;2022-09-13T06:01:02;12.67;;;7.73;;
19883;SDS011;10104;50.732;10.174;2022-09-13T06:03:24;8.70;;;6.70;;
19883;SDS011;10104;50.732;10.174;2022-09-13T06:05:45;9.20;;;7.40;;
19883;SDS011;10104;50.732;10.174;2022-09-13T06:08:07;8.27;;;7.13;;
19883;SDS011;10104;50.732;10.174;2022-09-13T06:10:28;9.40;;;6.77;;
19883;SDS011;10104;50.732;10.174;2022-09-13T06:12:50;11.20;;;7.17;;
19883;SDS011;10104;50.732;10.174;2022-09-13T06:15:11;7.50;;;6.80;;
19883;SDS011;10104;50.732;10.174;2022-09-13T06:17:33;8.97;;;7.63;;
19883;SDS011;10104;50.732;10.174;2022-09-13T06:19:55;9.00;;;7.17;;
19883;SDS011;10104;50.732;10.174;2022-09-13T06:22:17;8.93;;;7.93;;
19883;SDS011;10104;50.732;10.174;2022-09-13T06:24:38;10.40;;;7.80;;
19883;SDS011;10104;50.732;10.174;2022-09-13T06:27:00;8.80;;;7.20;;
19883;SDS011;10104;50.732;10.174;2022-09-13T06:29:21;10.00;;;8.30;;
19883;SDS011;10104;50.732;10.174;2022-09-13T06:31:42;8.70;;;7.50;;
19883;SDS011;10104;50.732;10.174;2022-09-13T06:34:05;8.73;;;7.70;;
19883;SDS011;10104;50.732;10.174;2022-09-13T06:36:28;8.83;;;7.97;;
19883;SDS011;10104;50.732;10.174;2022-09-13T06:38:50;12.00;;;8.73;;
19883;SDS011;10104;50.732;10.174;2022-09-13T06:41:12;15.53;;;8.13;;
19883;SDS011;10104;50.732;10.174;2022-09-13T06:43:36;15.63;;;8.17;;
19883;SDS011;10104;50.732;10.174;2022-09-13T06:46:02;16.43;;;8.17;;
19883;SDS011;10104;50.732;10.174;2022-09-13T06:48:29;12.97;;;8.23;;
19883;SDS011;10104;50.732;10.174;2022-09-13T06:50:51;11.82;;;8.00;;
19883;SDS011;10104;50.732;10.174;2022-09-13T06:53:13;10.02;;;8.30;;
19883;SDS011;10104;50.732;10.174;2022-09-13T06:55:34;11.57;;;8.75;;
19883;SDS011;10104;50.732;10.174;2022-09-13T06:57:56;10.85;;;9.23;;
19883;SDS011;10104;50.732;10.174;2022-09-13T07:00:19;12.55;;;10.00;;
19883;SDS011;10104;50.732;10.174;2022-09-13T07:02:40;12.23;;;9.82;;
19883;SDS011;10104;50.732;10.174;2022-09-13T07:05:02;12.70;;;9.20;;
19883;SDS011;10104;50.732;10.174;2022-09-13T07:07:23;10.00;;;8.88;;
19883;SDS011;10104;50.732;10.174;2022-09-13T07:09:45;12.25;;;8.77;;
19883;SDS011;10104;50.732;10.174;2022-09-13T07:12:06;12.00;;;8.73;;
19883;SDS011;10104;50.732;10.174;2022-09-13T07:14:28;9.20;;;8.30;;
19883;SDS011;10104;50.732;10.174;2022-09-13T07:16:49;11.50;;;8.30;;
19883;SDS011;10104;50.732;10.174;2022-09-13T07:19:15;14.25;;;9.95;;
19883;SDS011;10104;50.732;10.174;2022-09-13T07:21:43;14.55;;;9.25;;
19883;SDS011;10104;50.732;10.174;2022-09-13T07:24:05;11.00;;;9.27;;
19883;SDS011;10104;50.732;10.174;2022-09-13T07:26:26;11.05;;;9.38;;
19883;SDS011;10104;50.732;10.174;2022-09-13T07:28:49;13.95;;;8.73;;
19883;SDS011;10104;50.732;10.174;2022-09-13T07:31:13;11.88;;;8.82;;
19883;SDS011;10104;50.732;10.174;2022-09-13T07:33:38;11.73;;;9.00;;
19883;SDS011;10104;50.732;10.174;2022-09-13T07:36:01;10.80;;;8.13;;
19883;SDS011;10104;50.732;10.174;2022-09-13T07:38:26;10.15;;;8.10;;
19883;SDS011;10104;50.732;10.174;2022-09-13T07:40:54;8.77;;;7.88;;
19883;SDS011;10104;50.732;10.174;2022-09-13T07:43:18;8.93;;;8.02;;
19883;SDS011;10104;50.732;10.174;2022-09-13T07:45:39;12.10;;;8.45;;
19883;SDS011;10104;50.732;10.174;2022-09-13T07:48:01;9.88;;;8.70;;
19883;SDS011;10104;50.732;10.174;2022-09-13T07:50:22;11.65;;;8.82;;
19883;SDS011;10104;50.732;10.174;2022-09-13T07:52:44;12.60;;;8.48;;
19883;SDS011;10104;50.732;10.174;2022-09-13T07:55:05;9.75;;;8.68;;
19883;SDS011;10104;50.732;10.174;2022-09-13T07:57:27;10.85;;;8.43;;
19883;SDS011;10104;50.732;10.174;2022-09-13T07:59:48;9.68;;;8.75;;
19883;SDS011;10104;50.732;10.174;2022-09-13T08:02:10;9.95;;;8.95;;
19883;SDS011;10104;50.732;10.174;2022-09-13T08:04:31;9.93;;;8.88;;
19883;SDS011;10104;50.732;10.174;2022-09-13T08:06:56;9.70;;;8.23;;
19883;SDS011;10104;50.732;10.174;2022-09-13T08:09:18;10.15;;;8.13;;
19883;SDS011;10104;50.732;10.174;2022-09-13T08:11:40;10.05;;;7.97;;
19883;SDS011;10104;50.732;10.174;2022-09-13T08:14:05;9.32;;;8.20;;
19883;SDS011;10104;50.732;10.174;2022-09-13T08:16:29;11.43;;;9.25;;
19883;SDS011;10104;50.732;10.174;2022-09-13T08:18:53;10.70;;;9.60;;
19883;SDS011;10104;50.732;10.174;2022-09-13T08:21:16;9.93;;;8.90;;
19883;SDS011;10104;50.732;10.174;2022-09-13T08:23:39;10.32;;;8.35;;
19883;SDS011;10104;50.732;10.174;2022-09-13T08:26:01;10.65;;;8.32;;
19883;SDS011;10104;50.732;10.174;2022-09-13T08:28:23;10.63;;;8.98;;
19883;SDS011;10104;50.732;10.174;2022-09-13T08:30:48;11.35;;;9.32;;
19883;SDS011;10104;50.732;10.174;2022-09-13T08:33:10;10.75;;;8.52;;
19883;SDS011;10104;50.732;10.174;2022-09-13T08:35:32;9.23;;;8.30;;
19883;SDS011;10104;50.732;10.174;2022-09-13T08:37:53;8.23;;;7.43;;
19883;SDS011;10104;50.732;10.174;2022-09-13T08:40:15;8.23;;;7.47;;
19883;SDS011;10104;50.732;10.174;2022-09-13T08:45:22;6.80;;;6.15;;
19883;SDS011;10104;50.732;10.174;2022-09-13T08:47:49;7.00;;;6.18;;
19883;SDS011;10104;50.732;10.174;2022-09-13T08:52:46;7.97;;;6.57;;
19883;SDS011;10104;50.732;10.174;2022-09-13T08:55:20;8.45;;;6.82;;
19883;SDS011;10104;50.732;10.174;2022-09-13T08:57:54;8.23;;;6.32;;
19883;SDS011;10104;50.732;10.174;2022-09-13T09:00:34;7.13;;;6.35;;
19883;SDS011;10104;50.732;10.174;2022-09-13T09:03:16;6.82;;;6.22;;
19883;SDS011;10104;50.732;10.174;2022-09-13T09:05:47;7.97;;;5.97;;
19883;SDS011;10104;50.732;10.174;2022-09-13T09:08:11;6.95;;;6.35;;
19883;SDS011;10104;50.732;10.174;2022-09-13T09:10:41;7.25;;;6.55;;
19883;SDS011;10104;50.732;10.174;2022-09-13T09:13:18;7.50;;;6.43;;
19883;SDS011;10104;50.732;10.174;2022-09-13T09:15:49;8.00;;;6.53;;
19883;SDS011;10104;50.732;10.174;2022-09-13T09:20:50;9.32;;;6.30;;
19883;SDS011;10104;50.732;10.174;2022-09-13T09:23:16;12.48;;;7.05;;
19883;SDS011;10104;50.732;10.174;2022-09-13T09:25:41;8.27;;;6.57;;
19883;SDS011;10104;50.732;10.174;2022-09-13T09:28:08;8.23;;;6.60;;
19883;SDS011;10104;50.732;10.174;2022-09-13T09:30:35;6.45;;;5.43;;
19883;SDS011;10104;50.732;10.174;2022-09-13T09:33:09;6.88;;;6.18;;
19883;SDS011;10104;50.732;10.174;2022-09-13T09:40:44;7.70;;;6.50;;
19883;SDS011;10104;50.732;10.174;2022-09-13T09:43:14;6.70;;;6.10;;
19883;SDS011;10104;50.732;10.174;2022-09-13T09:45:39;7.18;;;6.47;;
19883;SDS011;10104;50.732;10.174;2022-09-13T09:48:07;6.32;;;5.72;;
19883;SDS011;10104;50.732;10.174;2022-09-13T09:50:37;8.10;;;6.25;;
19883;SDS011;10104;50.732;10.174;2022-09-13T09:53:47;7.25;;;5.85;;
19883;SDS011;10104;50.732;10.174;2022-09-13T09:58:38;7.25;;;6.22;;
19883;SDS011;10104;50.732;10.174;2022-09-13T10:01:02;5.88;;;5.30;;
19883;SDS011;10104;50.732;10.174;2022-09-13T10:03:32;8.77;;;5.68;;
19883;SDS011;10104;50.732;10.174;2022-09-13T10:08:27;6.95;;;5.53;;
19883;SDS011;10104;50.732;10.174;2022-09-13T10:10:53;6.13;;;4.82;;
19883;SDS011;10104;50.732;10.174;2022-09-13T10:13:18;7.45;;;5.50;;
19883;SDS011;10104;50.732;10.174;2022-09-13T10:15:57;6.70;;;6.10;;
19883;SDS011;10104;50.732;10.174;2022-09-13T10:18:27;6.30;;;5.47;;
19883;SDS011;10104;50.732;10.174;2022-09-13T10:23:39;5.70;;;4.95;;
19883;SDS011;10104;50.732;10.174;2022-09-13T10:26:08;5.93;;;5.32;;
19883;SDS011;10104;50.732;10.174;2022-09-13T10:28:33;6.85;;;5.13;;
19883;SDS011;10104;50.732;10.174;2022-09-13T10:31:09;6.75;;;6.15;;
19883;SDS011;10104;50.732;10.174;2022-09-13T10:33:38;6.47;;;5.90;;
19883;SDS011;10104;50.732;10.174;2022-09-13T10:36:15;7.47;;;6.55;;
19883;SDS011;10104;50.732;10.174;2022-09-13T10:39:05;6.53;;;5.97;;
19883;SDS011;10104;50.732;10.174;2022-09-13T10:41:34;6.35;;;5.75;;
19883;SDS011;10104;50.732;10.174;2022-09-13T10:44:02;6.03;;;5.35;;
19883;SDS011;10104;50.732;10.174;2022-09-13T10:46:30;5.88;;;5.22;;
19883;SDS011;10104;50.732;10.174;2022-09-13T10:48:53;8.15;;;5.05;;
19883;SDS011;10104;50.732;10.174;2022-09-13T10:51:36;8.98;;;5.65;;
19883;SDS011;10104;50.732;10.174;2022-09-13T10:54:08;7.88;;;5.32;;
19883;SDS011;10104;50.732;10.174;2022-09-13T10:56:41;5.40;;;4.53;;
19883;SDS011;10104;50.732;10.174;2022-09-13T10:59:22;4.78;;;4.38;;
19883;SDS011;10104;50.732;10.174;2022-09-13T11:10:04;4.55;;;4.10;;
19883;SDS011;10104;50.732;10.174;2022-09-13T11:26:22;3.90;;;3.60;;
19883;SDS011;10104;50.732;10.174;2022-09-13T11:34:19;2.55;;;2.35;;
19883;SDS011;10104;50.732;10.174;2022-09-13T11:37:18;3.05;;;2.85;;
19883;SDS011;10104;50.732;10.174;2022-09-13T11:40:16;3.22;;;2.92;;
19883;SDS011;10104;50.732;10.174;2022-09-13T11:45:16;3.88;;;2.80;;
19883;SDS011;10104;50.732;10.174;2022-09-13T11:47:56;3.00;;;2.50;;
19883;SDS011;10104;50.732;10.174;2022-09-13T11:50:51;2.85;;;1.48;;
19883;SDS011;10104;50.732;10.174;2022-09-13T11:56:29;3.00;;;1.08;;
19883;SDS011;10104;50.732;10.174;2022-09-13T11:58:55;3.08;;;1.02;;
19883;SDS011;10104;50.732;10.174;2022-09-13T12:01:30;2.72;;;1.10;;
19883;SDS011;10104;50.732;10.174;2022-09-13T12:04:09;4.70;;;1.30;;
19883;SDS011;10104;50.732;10.174;2022-09-13T12:06:38;2.13;;;1.20;;
19883;SDS011;10104;50.732;10.174;2022-09-13T12:11:57;4.40;;;1.52;;
19883;SDS011;10104;50.732;10.174;2022-09-13T12:14:28;2.72;;;1.33;;
19883;SDS011;10104;50.732;10.174;2022-09-13T12:17:11;3.70;;;1.50;;
19883;SDS011;10104;50.732;10.174;2022-09-13T12:19:47;5.18;;;1.80;;
19883;SDS011;10104;50.732;10.174;2022-09-13T12:22:11;1.73;;;1.50;;
19883;SDS011;10104;50.732;10.174;2022-09-13T12:27:39;1.98;;;1.70;;
19883;SDS011;10104;50.732;10.174;2022-09-13T12:32:36;3.03;;;1.73;;
19883;SDS011;10104;50.732;10.174;2022-09-13T12:35:03;2.00;;;1.55;;
19883;SDS011;10104;50.732;10.174;2022-09-13T12:37:39;3.17;;;1.98;;
19883;SDS011;10104;50.732;10.174;2022-09-13T12:40:31;2.67;;;1.60;;
19883;SDS011;10104;50.732;10.174;2022-09-13T12:43:50;2.20;;;1.77;;
19883;SDS011;10104;50.732;10.174;2022-09-13T12:48:54;3.15;;;1.67;;
19883;SDS011;10104;50.732;10.174;2022-09-13T13:05:04;3.30;;;1.80;;
19883;SDS011;10104;50.732;10.174;2022-09-13T13:07:38;2.45;;;1.50;;
19883;SDS011;10104;50.732;10.174;2022-09-13T13:10:01;1.67;;;1.38;;
19883;SDS011;10104;50.732;10.174;2022-09-13T13:14:59;3.58;;;1.70;;
19883;SDS011;10104;50.732;10.174;2022-09-13T13:23:15;2.15;;;1.95;;
19883;SDS011;10104;50.732;10.174;2022-09-13T13:31:04;1.88;;;1.58;;
19883;SDS011;10104;50.732;10.174;2022-09-13T13:33:27;3.28;;;1.85;;
19883;SDS011;10104;50.732;10.174;2022-09-13T13:35:49;5.72;;;2.38;;
19883;SDS011;10104;50.732;10.174;2022-09-13T13:38:53;3.60;;;1.52;;
19883;SDS011;10104;50.732;10.174;2022-09-13T13:41:46;3.25;;;1.80;;
19883;SDS011;10104;50.732;10.174;2022-09-13T13:43:53;4.43;;;2.13;;
19883;SDS011;10104;50.732;10.174;2022-09-13T13:48:42;3.10;;;1.73;;
19883;SDS011;10104;50.732;10.174;2022-09-13T13:53:38;3.67;;;1.80;;
19883;SDS011;10104;50.732;10.174;2022-09-13T13:56:06;5.03;;;1.70;;
19883;SDS011;10104;50.732;10.174;2022-09-13T13:58:44;2.30;;;1.80;;
19883;SDS011;10104;50.732;10.174;2022-09-13T14:01:13;4.90;;;1.88;;
19883;SDS011;10104;50.732;10.174;2022-09-13T14:09:45;3.70;;;1.70;;
19883;SDS011;10104;50.732;10.174;2022-09-13T14:15:13;3.58;;;1.83;;
19883;SDS011;10104;50.732;10.174;2022-09-13T14:20:26;2.58;;;2.05;;
19883;SDS011;10104;50.732;10.174;2022-09-13T14:22:47;3.58;;;1.90;;
19883;SDS011;10104;50.732;10.174;2022-09-13T14:25:22;2.00;;;1.73;;
19883;SDS011;10104;50.732;10.174;2022-09-13T14:27:45;3.15;;;2.03;;
19883;SDS011;10104;50.732;10.174;2022-09-13T14:32:40;3.47;;;2.20;;
19883;SDS011;10104;50.732;10.174;2022-09-13T14:35:05;2.10;;;1.63;;
19883;SDS011;10104;50.732;10.174;2022-09-13T14:37:41;2.53;;;2.20;;
19883;SDS011;10104;50.732;10.174;2022-09-13T14:40:16;2.55;;;1.80;;
19883;SDS011;10104;50.732;10.174;2022-09-13T14:42:44;2.67;;;2.10;;
19883;SDS011;10104;50.732;10.174;2022-09-13T14:45:14;2.88;;;1.88;;
19883;SDS011;10104;50.732;10.174;2022-09-13T14:47:43;3.05;;;1.85;;
19883;SDS011;10104;50.732;10.174;2022-09-13T14:50:12;3.15;;;1.90;;
19883;SDS011;10104;50.732;10.174;2022-09-13T14:52:42;4.22;;;2.00;;
19883;SDS011;10104;50.732;10.174;2022-09-13T14:55:11;2.33;;;1.83;;
19883;SDS011;10104;50.732;10.174;2022-09-13T14:57:37;1.50;;;1.40;;
19883;SDS011;10104;50.732;10.174;2022-09-13T15:00:05;4.35;;;1.77;;
19883;SDS011;10104;50.732;10.174;2022-09-13T15:02:37;6.07;;;1.80;;
19883;SDS011;10104;50.732;10.174;2022-09-13T15:05:00;3.10;;;1.60;;
19883;SDS011;10104;50.732;10.174;2022-09-13T15:07:33;1.83;;;1.52;;
19883;SDS011;10104;50.732;10.174;2022-09-13T15:09:57;3.92;;;1.92;;
19883;SDS011;10104;50.732;10.174;2022-09-13T15:12:26;2.85;;;1.75;;
19883;SDS011;10104;50.732;10.174;2022-09-13T15:14:48;1.73;;;1.58;;
19883;SDS011;10104;50.732;10.174;2022-09-13T15:17:11;3.10;;;1.73;;
19883;SDS011;10104;50.732;10.174;2022-09-13T15:19:35;5.00;;;1.67;;
19883;SDS011;10104;50.732;10.174;2022-09-13T15:22:41;2.90;;;1.52;;
19883;SDS011;10104;50.732;10.174;2022-09-13T15:24:49;6.05;;;1.90;;
19883;SDS011;10104;50.732;10.174;2022-09-13T15:27:17;2.05;;;1.73;;
19883;SDS011;10104;50.732;10.174;2022-09-13T15:29:51;5.32;;;1.67;;
19883;SDS011;10104;50.732;10.174;2022-09-13T15:33:26;3.95;;;1.80;;
19883;SDS011;10104;50.732;10.174;2022-09-13T15:35:33;2.25;;;1.70;;
19883;SDS011;10104;50.732;10.174;2022-09-13T15:38:00;2.70;;;1.60;;
19883;SDS011;10104;50.732;10.174;2022-09-13T15:40:45;3.10;;;1.70;;
19883;SDS011;10104;50.732;10.174;2022-09-13T15:43:08;5.18;;;1.85;;
19883;SDS011;10104;50.732;10.174;2022-09-13T15:45:30;3.90;;;2.05;;
19883;SDS011;10104;50.732;10.174;2022-09-13T15:47:51;2.63;;;1.98;;
19883;SDS011;10104;50.732;10.174;2022-09-13T15:50:23;2.70;;;1.52;;
19883;SDS011;10104;50.732;10.174;2022-09-13T15:52:51;2.95;;;1.90;;
19883;SDS011;10104;50.732;10.174;2022-09-13T15:55:13;2.22;;;1.60;;
19883;SDS011;10104;50.732;10.174;2022-09-13T15:57:35;3.28;;;1.80;;
19883;SDS011;10104;50.732;10.174;2022-09-13T15:59:56;1.98;;;1.80;;
19883;SDS011;10104;50.732;10.174;2022-09-13T16:02:25;1.98;;;1.63;;
19883;SDS011;10104;50.732;10.174;2022-09-13T16:04:48;3.42;;;1.63;;
19883;SDS011;10104;50.732;10.174;2022-09-13T16:07:10;3.40;;;1.70;;
19883;SDS011;10104;50.732;10.174;2022-09-13T16:09:31;2.95;;;1.42;;
19883;SDS011;10104;50.732;10.174;2022-09-13T16:11:53;1.77;;;1.67;;
19883;SDS011;10104;50.732;10.174;2022-09-13T16:14:15;2.78;;;1.70;;
19883;SDS011;10104;50.732;10.174;2022-09-13T16:16:37;1.60;;;1.50;;
19883;SDS011;10104;50.732;10.174;2022-09-13T16:18:58;1.67;;;1.58;;
19883;SDS011;10104;50.732;10.174;2022-09-13T16:21:20;2.03;;;1.67;;
19883;SDS011;10104;50.732;10.174;2022-09-13T16:23:41;2.05;;;1.70;;
19883;SDS011;10104;50.732;10.174;2022-09-13T16:26:03;2.30;;;1.45;;
19883;SDS011;10104;50.732;10.174;2022-09-13T16:28:25;2.58;;;1.80;;
19883;SDS011;10104;50.732;10.174;2022-09-13T16:30:47;1.80;;;1.65;;
19883;SDS011;10104;50.732;10.174;2022-09-13T16:33:09;4.95;;;2.03;;
19883;SDS011;10104;50.732;10.174;2022-09-13T16:35:31;2.50;;;2.03;;
19883;SDS011;10104;50.732;10.174;2022-09-13T16:37:53;4.00;;;1.90;;
19883;SDS011;10104;50.732;10.174;2022-09-13T16:40:15;2.28;;;1.83;;
19883;SDS011;10104;50.732;10.174;2022-09-13T16:42:37;3.45;;;1.65;;
19883;SDS011;10104;50.732;10.174;2022-09-13T16:44:59;5.53;;;2.03;;
19883;SDS011;10104;50.732;10.174;2022-09-13T16:47:20;2.33;;;1.77;;
19883;SDS011;10104;50.732;10.174;2022-09-13T16:49:42;2.45;;;1.80;;
19883;SDS011;10104;50.732;10.174;2022-09-13T16:52:04;4.60;;;1.95;;
19883;SDS011;10104;50.732;10.174;2022-09-13T16:54:26;3.15;;;1.67;;
19883;SDS011;10104;50.732;10.174;2022-09-13T16:56:50;3.30;;;1.83;;
19883;SDS011;10104;50.732;10.174;2022-09-13T16:59:11;2.75;;;1.85;;
19883;SDS011;10104;50.732;10.174;2022-09-13T17:01:34;3.67;;;1.67;;
19883;SDS011;10104;50.732;10.174;2022-09-13T17:03:56;3.65;;;1.77;;
19883;SDS011;10104;50.732;10.174;2022-09-13T17:06:17;4.43;;;1.90;;
19883;SDS011;10104;50.732;10.174;2022-09-13T17:08:40;3.17;;;1.90;;
19883;SDS011;10104;50.732;10.174;2022-09-13T17:11:08;3.20;;;2.13;;
19883;SDS011;10104;50.732;10.174;2022-09-13T17:13:32;1.90;;;1.60;;
19883;SDS011;10104;50.732;10.174;2022-09-13T17:15:54;3.08;;;2.00;;
19883;SDS011;10104;50.732;10.174;2022-09-13T17:18:17;4.05;;;2.05;;
19883;SDS011;10104;50.732;10.174;2022-09-13T17:20:42;4.53;;;1.88;;
19883;SDS011;10104;50.732;10.174;2022-09-13T17:23:07;4.03;;;1.80;;